createdAt,value
2022-12-19T00:01:40.572Z,92.65
2022-12-19T00:03:44.514Z,97.50
2022-12-19T00:05:47.106Z,100.68
2022-12-19T00:07:49.737Z,103.97
2022-12-19T00:09:52.394Z,91.07
2022-12-19T00:11:55.307Z,103.97
2022-12-19T00:13:59.996Z,96.85
2022-12-19T00:16:03.937Z,98.95
2022-12-19T00:18:06.712Z,90.25
2022-12-19T00:20:10.294Z,95.03
2022-12-19T00:22:14.391Z,96.07
2022-12-19T00:24:21.650Z,87.47
2022-12-19T00:26:26.453Z,95.57
2022-12-19T00:28:29.032Z,89.72
2022-12-19T00:30:33.221Z,97.65
2022-12-19T00:32:36.311Z,93.97
2022-12-19T00:34:38.905Z,89.43
2022-12-19T00:36:41.561Z,96.32
2022-12-19T00:38:44.367Z,95.20
2022-12-19T00:40:46.961Z,89.70
2022-12-19T00:42:53.547Z,92.55
2022-12-19T00:44:56.427Z,95.65
2022-12-19T00:47:00.402Z,99.78
2022-12-19T00:49:03.964Z,94.68
2022-12-19T00:51:08.788Z,94.82
2022-12-19T00:53:11.413Z,96.40
2022-12-19T00:55:18.783Z,94.70
2022-12-19T00:57:22.063Z,90.53
2022-12-19T00:59:26.915Z,89.63
2022-12-19T01:01:33.276Z,91.40
2022-12-19T01:03:37.604Z,95.13
2022-12-19T01:05:40.752Z,87.30
2022-12-19T01:07:44.773Z,85.50
2022-12-19T01:09:47.386Z,94.20
2022-12-19T01:12:08.884Z,90.90
2022-12-19T01:14:16.089Z,93.30
2022-12-19T01:16:21.833Z,82.07
2022-12-19T01:18:24.496Z,93.45
2022-12-19T01:20:29.687Z,87.20
2022-12-19T01:22:32.742Z,91.25
2022-12-19T01:24:35.364Z,88.90
2022-12-19T01:26:38.011Z,87.75
2022-12-19T01:28:40.832Z,97.45
2022-12-19T01:30:43.524Z,100.70
2022-12-19T01:32:47.144Z,89.97
2022-12-19T01:34:50.025Z,94.75
2022-12-19T01:36:53.942Z,89.78
2022-12-19T01:38:56.660Z,90.57
2022-12-19T01:40:59.303Z,87.97
2022-12-19T01:43:04.868Z,93.47
2022-12-19T01:45:34.447Z,89.28
2022-12-19T01:47:46.475Z,92.85
2022-12-19T01:49:51.326Z,99.43
2022-12-19T01:51:57.876Z,89.20
2022-12-19T01:54:05.277Z,96.90
2022-12-19T01:56:10.788Z,92.38
2022-12-19T01:58:14.866Z,98.28
2022-12-19T02:00:17.862Z,92.90
2022-12-19T02:02:26.496Z,92.70
2022-12-19T02:04:32.286Z,95.82
2022-12-19T02:06:36.110Z,96.90
2022-12-19T02:08:42.376Z,91.35
2022-12-19T02:10:45.086Z,90.82
2022-12-19T02:12:48.051Z,90.53
2022-12-19T02:14:50.865Z,98.60
2022-12-19T02:17:00.400Z,94.00
2022-12-19T02:19:20.056Z,89.15
2022-12-19T02:21:34.811Z,90.45
2022-12-19T02:24:08.477Z,94.88
2022-12-19T02:26:32.951Z,93.40
2022-12-19T02:29:04.624Z,93.13
2022-12-19T02:31:17.727Z,86.47
2022-12-19T02:33:30.703Z,98.50
2022-12-19T02:35:41.467Z,91.18
2022-12-19T02:37:49.510Z,89.30
2022-12-19T02:39:59.953Z,91.10
2022-12-19T02:42:06.813Z,92.45
2022-12-19T02:44:11.206Z,95.60
2022-12-19T02:46:16.360Z,92.82
2022-12-19T02:48:19.726Z,92.53
2022-12-19T02:50:22.415Z,92.60
2022-12-19T02:52:46.740Z,99.80
2022-12-19T02:54:51.850Z,92.43
2022-12-19T02:56:59.972Z,98.82
2022-12-19T02:59:32.707Z,101.40
2022-12-19T03:01:45.689Z,97.95
2022-12-19T03:04:00.901Z,98.65
2022-12-19T03:06:12.723Z,93.75
2022-12-19T03:10:31.878Z,98.63
2022-12-19T03:12:42.413Z,98.15
2022-12-19T03:14:46.512Z,102.55
2022-12-19T03:16:50.788Z,97.90
2022-12-19T03:19:00.860Z,105.78
2022-12-19T03:21:09.815Z,104.78
2022-12-19T03:23:13.311Z,98.45
2022-12-19T03:25:16.032Z,93.63
2022-12-19T03:27:25.269Z,99.22
2022-12-19T03:29:33.661Z,97.18
2022-12-19T03:31:39.050Z,93.45
2022-12-19T03:33:44.516Z,96.45
2022-12-19T03:35:48.693Z,103.75
2022-12-19T03:37:53.568Z,94.03
2022-12-19T03:39:59.892Z,95.50
2022-12-19T03:42:23.691Z,100.80
2022-12-19T03:44:30.630Z,90.53
2022-12-19T03:46:36.613Z,94.25
2022-12-19T03:48:45.495Z,98.32
2022-12-19T03:50:55.176Z,96.32
2022-12-19T03:53:05.087Z,92.55
2022-12-19T03:55:14.786Z,91.05
2022-12-19T03:57:22.156Z,92.53
2022-12-19T03:59:34.343Z,97.53
2022-12-19T04:01:38.692Z,96.40
2022-12-19T04:03:42.885Z,94.30
2022-12-19T04:05:47.668Z,102.13
2022-12-19T04:07:51.988Z,89.75
2022-12-19T04:09:56.823Z,89.57
2022-12-19T04:12:03.691Z,86.88
2022-12-19T04:14:11.625Z,89.20
2022-12-19T04:16:19.583Z,95.35
2022-12-19T04:18:23.381Z,90.20
2022-12-19T04:20:30.889Z,94.65
2022-12-19T04:22:37.762Z,92.70
2022-12-19T04:24:43.394Z,95.30
2022-12-19T04:26:49.863Z,88.75
2022-12-19T04:28:56.418Z,87.53
2022-12-19T04:31:00.156Z,88.93
2022-12-19T04:33:02.785Z,84.65
2022-12-19T04:35:06.046Z,92.10
2022-12-19T04:37:10.046Z,87.53
2022-12-19T04:39:12.719Z,89.55
2022-12-19T04:41:15.336Z,86.00
2022-12-19T04:43:17.922Z,89.68
2022-12-19T04:45:20.516Z,86.13
2022-12-19T04:47:23.186Z,85.00
2022-12-19T04:49:25.827Z,89.55
2022-12-19T04:51:28.493Z,88.15
2022-12-19T04:53:32.871Z,87.32
2022-12-19T04:55:35.545Z,83.65
2022-12-19T04:57:38.206Z,85.75
2022-12-19T04:59:40.844Z,86.80
2022-12-19T05:01:43.513Z,88.30
2022-12-19T05:03:50.018Z,88.32
2022-12-19T05:06:03.490Z,88.65
2022-12-19T05:08:06.613Z,87.38
2022-12-19T05:10:11.228Z,87.80
2022-12-19T05:12:13.866Z,93.78
2022-12-19T05:14:16.615Z,88.43
2022-12-19T05:16:19.881Z,90.97
2022-12-19T05:18:22.526Z,91.35
2022-12-19T05:20:25.123Z,93.88
2022-12-19T05:22:27.734Z,100.80
2022-12-19T05:24:30.340Z,101.90
2022-12-19T05:26:34.281Z,90.57
2022-12-19T05:28:36.918Z,99.30
2022-12-19T05:30:39.570Z,97.97
2022-12-19T05:32:42.188Z,96.40
2022-12-19T05:34:44.797Z,88.95
2022-12-19T05:36:47.588Z,97.60
2022-12-19T05:38:50.274Z,90.78
2022-12-19T05:40:53.100Z,98.53
2022-12-19T05:42:57.133Z,96.18
2022-12-19T05:44:59.868Z,91.18
2022-12-19T05:47:02.452Z,92.65
2022-12-19T05:49:05.098Z,94.10
2022-12-19T05:51:08.326Z,105.88
2022-12-19T05:53:10.930Z,94.55
2022-12-19T05:55:13.683Z,92.03
2022-12-19T05:57:16.287Z,91.60
2022-12-19T05:59:20.262Z,88.43
2022-12-19T06:01:24.740Z,90.70
2022-12-19T06:03:27.422Z,88.75
2022-12-19T06:05:30.060Z,88.35
2022-12-19T06:07:32.652Z,84.25
2022-12-19T06:09:35.358Z,93.25
2022-12-19T06:11:37.952Z,95.18
2022-12-19T06:13:41.839Z,89.63
2022-12-19T06:15:47.064Z,104.00
2022-12-19T06:17:49.751Z,98.18
2022-12-19T06:19:52.362Z,93.43
2022-12-19T06:21:54.987Z,88.68
2022-12-19T06:23:57.719Z,95.60
2022-12-19T06:26:01.480Z,89.32
2022-12-19T06:28:04.182Z,83.22
2022-12-19T06:30:08.026Z,89.53
2022-12-19T06:32:13.134Z,85.35
2022-12-19T06:34:39.498Z,89.32
2022-12-19T06:36:38.872Z,88.93
2022-12-19T06:38:41.489Z,90.80
2022-12-19T06:41:02.771Z,88.50
2022-12-19T06:43:05.353Z,94.20
2022-12-19T06:45:08.844Z,106.50
2022-12-19T06:47:12.769Z,91.10
2022-12-19T06:49:15.370Z,92.35
2022-12-19T06:51:18.314Z,90.13
2022-12-19T06:53:20.940Z,89.38
2022-12-19T06:55:23.739Z,85.15
2022-12-19T06:57:26.313Z,85.32
2022-12-19T06:59:28.919Z,93.93
2022-12-19T07:01:48.009Z,83.20
2022-12-19T07:03:52.299Z,82.40
2022-12-19T07:05:54.991Z,86.53
2022-12-19T07:07:57.597Z,92.15
2022-12-19T07:10:00.349Z,87.35
2022-12-19T07:12:03.282Z,87.03
2022-12-19T07:14:06.246Z,90.25
2022-12-19T07:16:11.285Z,83.50
2022-12-19T07:18:14.242Z,92.82
2022-12-19T07:20:20.110Z,78.35
2022-12-19T07:22:23.781Z,88.45
2022-12-19T07:24:26.417Z,84.45
2022-12-19T07:26:29.066Z,83.72
2022-12-19T07:28:33.692Z,88.80
2022-12-19T07:30:36.413Z,90.25
2022-12-19T07:32:42.019Z,87.47
2022-12-19T07:34:44.688Z,80.30
2022-12-19T07:36:48.618Z,82.75
2022-12-19T07:38:51.246Z,77.97
2022-12-19T07:40:53.853Z,86.55
2022-12-19T07:43:00.373Z,94.25
2022-12-19T07:45:03.108Z,92.07
2022-12-19T07:47:05.822Z,86.70
2022-12-19T07:49:08.460Z,88.97
2022-12-19T07:51:11.130Z,89.85
2022-12-19T07:53:15.258Z,85.90
2022-12-19T07:55:18.063Z,81.50
2022-12-19T07:57:21.053Z,86.78
2022-12-19T07:59:29.598Z,91.47
2022-12-19T08:01:34.121Z,91.82
2022-12-19T08:03:36.949Z,85.70
2022-12-19T08:05:39.602Z,89.90
2022-12-19T08:07:42.266Z,88.43
2022-12-19T08:09:46.340Z,91.72
2022-12-19T08:11:49.063Z,98.63
2022-12-19T08:13:51.677Z,113.47
2022-12-19T08:15:54.511Z,99.20
2022-12-19T08:17:58.037Z,84.18
2022-12-19T08:20:00.632Z,83.53
2022-12-19T08:22:03.285Z,80.57
2022-12-19T08:24:06.670Z,82.95
2022-12-19T08:26:14.398Z,84.57
2022-12-19T08:28:17.054Z,85.00
2022-12-19T08:30:20.077Z,81.57
2022-12-19T08:32:22.737Z,83.70
2022-12-19T08:34:25.348Z,84.95
2022-12-19T08:36:27.948Z,79.25
2022-12-19T08:38:30.681Z,97.47
2022-12-19T08:40:33.746Z,97.43
2022-12-19T08:42:38.090Z,91.20
2022-12-19T08:44:40.765Z,78.15
2022-12-19T08:46:49.537Z,84.95
2022-12-19T08:48:52.755Z,83.03
2022-12-19T08:50:57.703Z,91.80
2022-12-19T08:53:00.311Z,88.22
2022-12-19T08:55:03.067Z,93.18
2022-12-19T08:57:05.629Z,85.85
2022-12-19T08:59:09.548Z,85.40
2022-12-19T09:01:19.194Z,84.25
2022-12-19T09:03:23.756Z,82.45
2022-12-19T09:05:59.259Z,84.88
2022-12-19T09:07:50.836Z,77.68
2022-12-19T09:09:54.113Z,72.15
2022-12-19T09:11:56.777Z,80.13
2022-12-19T09:13:59.683Z,76.90
2022-12-19T09:16:06.298Z,78.82
2022-12-19T09:18:08.936Z,83.40
2022-12-19T09:20:14.825Z,81.75
2022-12-19T09:22:19.453Z,87.32
2022-12-19T09:24:22.070Z,87.03
2022-12-19T09:26:26.534Z,89.63
2022-12-19T09:28:31.580Z,80.07
2022-12-19T09:30:34.528Z,90.38
2022-12-19T09:32:39.627Z,81.57
2022-12-19T09:34:42.234Z,75.07
2022-12-19T09:36:44.854Z,81.20
2022-12-19T09:38:48.131Z,85.05
2022-12-19T09:41:07.238Z,85.60
2022-12-19T09:43:15.055Z,81.90
2022-12-19T09:45:40.916Z,78.32
2022-12-19T09:47:48.940Z,76.00
2022-12-19T09:49:54.015Z,78.97
2022-12-19T09:52:01.605Z,76.03
2022-12-19T09:54:13.538Z,76.78
2022-12-19T09:56:18.111Z,74.40
2022-12-19T09:58:34.822Z,71.43
2022-12-19T10:00:41.892Z,70.05
2022-12-19T10:02:51.668Z,70.93
2022-12-19T10:05:17.488Z,82.25
2022-12-19T10:08:01.454Z,70.85
2022-12-19T10:11:45.777Z,72.00
2022-12-19T10:12:44.973Z,69.60
2022-12-19T10:15:02.426Z,76.65
2022-12-19T10:17:25.360Z,69.47
2022-12-19T10:19:39.149Z,70.78
2022-12-19T10:22:16.879Z,71.95
2022-12-19T10:24:34.802Z,75.88
2022-12-19T10:26:43.939Z,88.05
2022-12-19T10:29:02.421Z,71.40
2022-12-19T10:31:21.346Z,76.80
2022-12-19T10:33:33.432Z,75.68
2022-12-19T10:35:42.575Z,72.47
2022-12-19T10:37:51.304Z,75.40
2022-12-19T10:40:11.635Z,78.95
2022-12-19T10:42:30.030Z,72.60
2022-12-19T10:44:36.604Z,75.28
2022-12-19T10:46:41.522Z,72.60
2022-12-19T10:48:44.132Z,71.90
2022-12-19T10:50:48.272Z,80.22
2022-12-19T10:52:54.461Z,79.88
2022-12-19T10:54:57.765Z,75.28
2022-12-19T10:57:19.202Z,78.68
2022-12-19T10:59:22.635Z,76.35
2022-12-19T11:01:28.307Z,75.30
2022-12-19T11:03:32.228Z,66.05
2022-12-19T11:05:44.498Z,69.72
2022-12-19T11:08:02.983Z,79.10
2022-12-19T11:12:25.311Z,80.55
2022-12-19T11:16:36.662Z,77.82
2022-12-19T11:21:16.187Z,71.70
2022-12-19T11:29:16.607Z,75.78
2022-12-19T11:29:42.534Z,69.40
2022-12-19T11:29:45.132Z,81.65
2022-12-19T11:30:26.152Z,60.63
2022-12-19T11:30:43.746Z,61.78
2022-12-19T11:32:41.066Z,66.70
2022-12-19T11:34:50.675Z,60.42
2022-12-19T11:36:57.969Z,68.40
2022-12-19T11:39:01.321Z,69.72
2022-12-19T11:41:12.751Z,61.80
2022-12-19T11:45:52.477Z,60.78
2022-12-19T11:48:00.042Z,66.85
2022-12-19T11:50:11.827Z,57.42
2022-12-19T11:54:49.310Z,60.03
2022-12-19T11:56:53.251Z,54.55
2022-12-19T11:59:01.030Z,59.95
2022-12-19T12:01:13.630Z,59.55
2022-12-19T12:03:34.855Z,55.63
2022-12-19T12:05:43.964Z,63.40
2022-12-19T12:09:48.750Z,64.55
2022-12-19T12:15:37.939Z,59.08
2022-12-19T12:20:54.216Z,61.35
2022-12-19T12:29:48.796Z,71.57
2022-12-19T12:31:01.919Z,61.08
2022-12-19T12:31:18.580Z,67.40
2022-12-19T12:31:38.888Z,64.57
2022-12-19T12:31:47.568Z,68.32
2022-12-19T12:31:52.923Z,62.77
2022-12-19T12:35:29.219Z,58.88
2022-12-19T12:39:15.991Z,61.35
2022-12-19T12:41:48.009Z,63.78
2022-12-19T12:44:07.503Z,60.20
2022-12-19T12:46:17.226Z,60.17
2022-12-19T12:48:26.090Z,58.03
2022-12-19T12:50:31.373Z,56.30
2022-12-19T12:52:38.141Z,57.22
2022-12-19T12:54:43.822Z,56.70
2022-12-19T12:56:48.516Z,55.60
2022-12-19T12:59:23.956Z,65.53
2022-12-19T13:01:35.500Z,56.50
2022-12-19T13:03:38.656Z,55.65
2022-12-19T13:05:54.019Z,55.35
2022-12-19T13:07:56.772Z,62.28
2022-12-19T13:10:19.668Z,58.78
2022-12-19T13:12:44.604Z,58.08
2022-12-19T13:14:49.706Z,56.25
2022-12-19T13:16:55.395Z,54.50
2022-12-19T13:19:05.303Z,53.10
2022-12-19T13:21:10.603Z,59.25
2022-12-19T13:23:33.293Z,56.50
2022-12-19T13:25:51.181Z,54.85
2022-12-19T13:27:58.367Z,58.55
2022-12-19T13:30:20.387Z,55.38
2022-12-19T13:32:24.908Z,59.65
2022-12-19T13:34:36.688Z,58.90
2022-12-19T13:39:59.625Z,60.47
2022-12-19T13:42:20.910Z,57.53
2022-12-19T13:44:23.709Z,60.78
2022-12-19T13:46:37.877Z,62.40
2022-12-19T13:48:46.800Z,60.08
2022-12-19T13:50:50.075Z,62.45
2022-12-19T13:52:53.679Z,59.50
2022-12-19T13:54:59.292Z,64.57
2022-12-19T13:57:08.960Z,65.30
2022-12-19T13:59:12.555Z,59.95
2022-12-19T14:01:22.358Z,58.92
2022-12-19T14:03:35.096Z,62.72
2022-12-19T14:06:17.423Z,60.33
2022-12-19T14:08:05.928Z,59.13
2022-12-19T14:11:32.101Z,60.22
2022-12-19T14:13:54.122Z,56.75
2022-12-19T14:15:28.640Z,54.95
2022-12-19T14:17:31.242Z,60.55
2022-12-19T14:19:39.799Z,57.95
2022-12-19T14:22:03.939Z,60.03
2022-12-19T14:24:11.051Z,57.30
2022-12-19T14:28:22.352Z,66.38
2022-12-19T14:28:54.741Z,62.63
2022-12-19T14:31:01.431Z,60.05
2022-12-19T14:33:45.140Z,53.72
2022-12-19T14:36:12.268Z,61.30
2022-12-19T14:39:24.576Z,64.22
2022-12-19T14:40:28.501Z,64.18
2022-12-19T14:43:56.815Z,65.82
2022-12-19T14:54:02.600Z,66.03
2022-12-19T14:54:04.474Z,62.53
2022-12-19T14:54:15.112Z,60.33
2022-12-19T14:54:34.135Z,58.90
2022-12-19T14:56:15.900Z,60.38
2022-12-19T14:58:54.154Z,54.58
2022-12-19T15:01:07.489Z,57.63
2022-12-19T15:05:03.171Z,60.45
2022-12-19T15:07:12.243Z,62.33
2022-12-19T15:10:57.866Z,60.75
2022-12-19T15:14:37.439Z,60.65
2022-12-19T15:14:56.345Z,63.92
2022-12-19T15:16:49.297Z,61.80
2022-12-19T15:18:54.408Z,58.28
2022-12-19T15:20:59.093Z,56.33
2022-12-19T15:23:01.797Z,67.63
2022-12-19T15:25:06.597Z,64.57
2022-12-19T15:27:12.813Z,71.03
2022-12-19T15:29:21.641Z,72.07
2022-12-19T15:31:34.555Z,73.43
2022-12-19T15:33:48.023Z,75.03
2022-12-19T15:36:00.117Z,77.97
2022-12-19T15:38:02.685Z,70.50
2022-12-19T15:40:08.612Z,73.22
2022-12-19T15:42:21.487Z,73.85
2022-12-19T15:44:31.310Z,77.30
2022-12-19T15:46:34.414Z,64.07
2022-12-19T15:48:40.364Z,71.30
2022-12-19T15:50:43.894Z,63.92
2022-12-19T15:52:46.633Z,66.05
2022-12-19T15:54:50.790Z,66.00
2022-12-19T15:56:57.289Z,64.18
2022-12-19T15:59:01.991Z,62.97
2022-12-19T16:01:05.504Z,71.70
2022-12-19T16:03:23.607Z,65.05
2022-12-19T16:05:29.289Z,68.68
2022-12-19T16:07:32.209Z,69.30
2022-12-19T16:09:34.909Z,60.13
2022-12-19T16:11:38.855Z,60.10
2022-12-19T16:13:46.314Z,65.38
2022-12-19T16:15:52.859Z,66.55
2022-12-19T16:17:56.083Z,68.22
2022-12-19T16:19:59.379Z,70.55
2022-12-19T16:22:02.807Z,71.63
2022-12-19T16:24:08.187Z,80.97
2022-12-19T16:26:26.485Z,74.82
2022-12-19T16:28:32.117Z,67.03
2022-12-19T16:30:36.527Z,66.68
2022-12-19T16:32:39.209Z,65.88
2022-12-19T16:34:41.845Z,78.10
2022-12-19T16:36:44.984Z,82.15
2022-12-19T16:38:48.269Z,72.13
2022-12-19T16:40:52.749Z,71.18
2022-12-19T16:43:04.574Z,72.25
2022-12-19T16:47:14.167Z,64.45
2022-12-19T16:49:19.166Z,61.85
2022-12-19T16:51:24.120Z,59.75
2022-12-19T16:53:26.950Z,54.85
2022-12-19T16:55:29.537Z,58.40
2022-12-19T16:57:32.269Z,60.63
2022-12-19T16:59:38.289Z,61.47
2022-12-19T17:01:41.105Z,68.38
2022-12-19T17:03:46.260Z,68.60
2022-12-19T17:05:48.850Z,63.60
2022-12-19T17:07:52.354Z,64.80
2022-12-19T17:09:55.014Z,65.72
2022-12-19T17:12:00.427Z,62.53
2022-12-19T17:14:08.346Z,73.63
2022-12-19T17:16:11.099Z,67.95
2022-12-19T17:18:16.933Z,64.22
2022-12-19T17:20:23.501Z,57.15
2022-12-19T17:22:26.131Z,58.90
2022-12-19T17:24:28.815Z,54.85
2022-12-19T17:26:31.470Z,60.50
2022-12-19T17:28:34.128Z,57.35
2022-12-19T17:30:37.768Z,54.17
2022-12-19T17:32:40.563Z,50.85
2022-12-19T17:34:44.823Z,49.63
2022-12-19T17:36:48.893Z,53.50
2022-12-19T17:38:53.947Z,51.15
2022-12-19T17:40:56.566Z,49.13
2022-12-19T17:42:59.968Z,48.47
2022-12-19T17:45:02.562Z,53.38
2022-12-19T17:47:05.540Z,50.47
2022-12-19T17:49:16.852Z,46.22
2022-12-19T17:51:21.217Z,58.30
2022-12-19T17:53:25.400Z,53.85
2022-12-19T17:55:30.003Z,53.97
2022-12-19T17:57:32.607Z,55.95
2022-12-19T17:59:35.180Z,55.72
2022-12-19T18:01:41.574Z,58.08
2022-12-19T18:03:44.732Z,56.85
2022-12-19T18:05:47.899Z,61.65
2022-12-19T18:07:50.722Z,58.83
2022-12-19T18:09:54.654Z,55.67
2022-12-19T18:11:57.279Z,64.80
2022-12-19T18:13:59.940Z,58.03
2022-12-19T18:16:04.939Z,59.90
2022-12-19T18:18:13.482Z,63.95
2022-12-19T18:20:30.930Z,61.20
2022-12-19T18:22:37.248Z,61.15
2022-12-19T18:24:41.026Z,58.90
2022-12-19T18:26:45.619Z,58.70
2022-12-19T18:28:48.422Z,60.33
2022-12-19T18:30:52.412Z,55.92
2022-12-19T18:32:58.587Z,52.88
2022-12-19T18:35:01.248Z,58.33
2022-12-19T18:37:06.711Z,64.82
2022-12-19T18:39:19.981Z,55.97
2022-12-19T18:41:23.521Z,55.55
2022-12-19T18:43:27.491Z,59.20
2022-12-19T18:45:36.211Z,60.90
2022-12-19T18:47:39.376Z,58.15
2022-12-19T18:49:42.007Z,62.38
2022-12-19T18:51:45.932Z,57.85
2022-12-19T18:53:51.002Z,67.45
2022-12-19T18:55:53.675Z,68.35
2022-12-19T18:57:56.948Z,65.18
2022-12-19T19:00:00.883Z,72.68
2022-12-19T19:02:04.947Z,71.47
2022-12-19T19:04:08.881Z,71.40
2022-12-19T19:06:19.433Z,69.13
2022-12-19T19:08:27.079Z,72.15
2022-12-19T19:10:31.594Z,64.15
2022-12-19T19:12:34.224Z,65.72
2022-12-19T19:14:36.843Z,61.15
2022-12-19T19:16:40.956Z,60.58
2022-12-19T19:18:44.699Z,62.25
2022-12-19T19:20:48.640Z,62.80
2022-12-19T19:22:52.095Z,64.10
2022-12-19T19:24:54.763Z,60.72
2022-12-19T19:26:57.358Z,61.13
2022-12-19T19:29:00.005Z,59.65
2022-12-19T19:31:02.769Z,53.53
2022-12-19T19:33:10.533Z,53.33
2022-12-19T19:35:17.014Z,54.35
2022-12-19T19:37:19.793Z,48.95
2022-12-19T19:39:23.270Z,49.58
2022-12-19T19:41:29.789Z,53.00
2022-12-19T19:43:33.996Z,53.78
2022-12-19T19:45:42.779Z,55.15
2022-12-19T19:47:45.937Z,54.72
2022-12-19T19:49:49.877Z,58.10
2022-12-19T19:51:57.024Z,60.55
2022-12-19T19:54:07.166Z,61.65
2022-12-19T19:56:10.837Z,56.72
2022-12-19T19:58:13.469Z,62.67
2022-12-19T20:00:16.780Z,56.05
2022-12-19T20:02:19.862Z,55.10
2022-12-19T20:04:22.774Z,53.30
2022-12-19T20:06:27.090Z,52.70
2022-12-19T20:08:38.613Z,49.35
2022-12-19T20:10:42.010Z,54.90
2022-12-19T20:12:44.647Z,60.30
2022-12-19T20:14:48.092Z,54.90
2022-12-19T20:16:51.021Z,58.40
2022-12-19T20:18:53.825Z,53.95
2022-12-19T20:20:56.432Z,52.67
2022-12-19T20:23:00.375Z,53.17
2022-12-19T20:25:03.053Z,51.10
2022-12-19T20:27:05.661Z,59.30
2022-12-19T20:29:08.255Z,66.88
2022-12-19T20:31:10.994Z,56.38
2022-12-19T20:33:13.650Z,54.95
2022-12-19T20:35:16.442Z,52.97
2022-12-19T20:37:19.067Z,57.78
2022-12-19T20:39:23.027Z,54.13
2022-12-19T20:41:25.585Z,56.40
2022-12-19T20:43:28.206Z,61.33
2022-12-19T20:45:30.939Z,51.38
2022-12-19T20:47:33.565Z,58.50
2022-12-19T20:49:36.149Z,58.55
2022-12-19T20:51:39.306Z,62.05
2022-12-19T20:53:42.793Z,57.80
2022-12-19T20:55:57.795Z,59.00
2022-12-19T20:58:01.207Z,61.33
2022-12-19T21:00:04.980Z,56.08
2022-12-19T21:02:07.891Z,57.25
2022-12-19T21:04:10.920Z,53.38
2022-12-19T21:06:15.174Z,53.78
2022-12-19T21:08:17.750Z,56.30
2022-12-19T21:10:20.710Z,62.95
2022-12-19T21:12:24.728Z,48.03
2022-12-19T21:14:27.351Z,56.58
2022-12-19T21:16:30.152Z,55.35
2022-12-19T21:18:32.779Z,59.88
2022-12-19T21:20:35.997Z,50.95
2022-12-19T21:22:38.920Z,53.20
2022-12-19T21:24:41.588Z,57.45
2022-12-19T21:26:45.201Z,53.88
2022-12-19T21:28:50.125Z,49.05
2022-12-19T21:30:56.972Z,48.75
2022-12-19T21:32:59.606Z,54.40
2022-12-19T21:35:02.254Z,48.42
2022-12-19T21:37:04.889Z,48.30
2022-12-19T21:39:07.759Z,60.35
2022-12-19T21:41:11.442Z,57.78
2022-12-19T21:43:14.356Z,58.80
2022-12-19T21:45:18.885Z,54.40
2022-12-19T21:47:21.543Z,61.72
2022-12-19T21:49:24.150Z,61.60
2022-12-19T21:51:29.926Z,58.90
2022-12-19T21:53:32.920Z,58.90
2022-12-19T21:55:35.805Z,58.42
2022-12-19T21:57:39.667Z,58.65
2022-12-19T21:59:42.329Z,77.88
2022-12-19T22:01:46.819Z,63.92
2022-12-19T22:03:50.266Z,58.30
2022-12-19T22:05:52.986Z,55.28
2022-12-19T22:07:55.591Z,55.30
2022-12-19T22:09:58.170Z,54.55
2022-12-19T22:12:00.774Z,55.45
2022-12-19T22:14:05.018Z,55.75
2022-12-19T22:16:08.392Z,54.00
2022-12-19T22:18:12.403Z,56.78
2022-12-19T22:20:15.393Z,64.50
2022-12-19T22:22:18.019Z,64.72
2022-12-19T22:24:20.636Z,65.13
2022-12-19T22:26:24.170Z,61.00
2022-12-19T22:28:26.783Z,64.45
2022-12-19T22:30:29.422Z,67.75
2022-12-19T22:32:32.011Z,69.82
2022-12-19T22:34:35.952Z,63.25
2022-12-19T22:36:40.762Z,64.35
2022-12-19T22:38:44.169Z,61.10
2022-12-19T22:40:46.782Z,56.42
2022-12-19T22:42:49.435Z,55.42
2022-12-19T22:44:53.372Z,61.58
2022-12-19T22:46:55.988Z,59.97
2022-12-19T22:49:00.874Z,63.30
2022-12-19T22:51:05.215Z,59.33
2022-12-19T22:53:12.618Z,64.45
2022-12-19T22:55:15.708Z,58.63
2022-12-19T22:57:18.338Z,63.97
2022-12-19T22:59:21.318Z,59.35
2022-12-19T23:01:25.846Z,63.53
2022-12-19T23:03:28.679Z,57.10
2022-12-19T23:05:31.418Z,53.78
2022-12-19T23:07:35.709Z,62.75
2022-12-19T23:09:39.601Z,56.08
2022-12-19T23:11:44.159Z,60.78
2022-12-19T23:13:48.622Z,58.30
2022-12-19T23:15:51.258Z,61.80
2022-12-19T23:17:53.833Z,66.38
2022-12-19T23:19:56.411Z,61.40
2022-12-19T23:21:59.065Z,65.00
2022-12-19T23:24:03.211Z,58.72
2022-12-19T23:26:07.262Z,52.72
2022-12-19T23:28:13.842Z,61.50
2022-12-19T23:30:16.535Z,59.42
2022-12-19T23:32:22.163Z,56.10
2022-12-19T23:34:24.821Z,51.53
2022-12-19T23:38:53.963Z,57.58
2022-12-19T23:41:01.709Z,59.25
2022-12-19T23:43:04.430Z,58.85
2022-12-19T23:45:08.458Z,61.97
2022-12-19T23:47:11.029Z,57.30
2022-12-19T23:49:13.675Z,55.80
2022-12-19T23:51:18.321Z,61.85
2022-12-19T23:53:20.902Z,57.55
2022-12-19T23:55:23.518Z,55.85
2022-12-19T23:57:27.469Z,53.10
2022-12-19T23:59:30.979Z,44.78
